sensor_id;sensor_type;location;lat;lon;timestamp;pressure;altitude;pressure_sealevel;temperature;humidity
34921;BME280;21128;50.016;20.002;2023-02-18T00:01:18;98457.02;;;10.26;100.00
34921;BME280;21128;50.016;20.002;2023-02-18T00:03:47;98466.28;;;10.20;100.00
34921;BME280;21128;50.016;20.002;2023-02-18T00:06:23;98450.95;;;10.15;100.00
34921;BME280;21128;50.016;20.002;2023-02-18T00:08:51;98452.09;;;10.13;100.00
34921;BME280;21128;50.016;20.002;2023-02-18T00:11:19;98453.06;;;10.12;100.00
34921;BME280;21128;50.016;20.002;2023-02-18T00:13:55;98447.97;;;10.10;100.00
34921;BME280;21128;50.016;20.002;2023-02-18T00:16:23;98449.77;;;10.10;100.00
34921;BME280;21128;50.016;20.002;2023-02-18T00:19:00;98467.45;;;10.08;100.00
34921;BME280;21128;50.016;20.002;2023-02-18T00:21:28;98441.89;;;10.10;100.00
34921;BME280;21128;50.016;20.002;2023-02-18T00:23:55;98447.14;;;10.10;100.00
34921;BME280;21128;50.016;20.002;2023-02-18T00:26:22;98462.08;;;10.09;100.00
34921;BME280;21128;50.016;20.002;2023-02-18T00:28:50;98438.29;;;10.11;100.00
34921;BME280;21128;50.016;20.002;2023-02-18T00:31:26;98455.02;;;10.10;100.00
34921;BME280;21128;50.016;20.002;2023-02-18T00:33:53;98453.22;;;10.10;100.00
34921;BME280;21128;50.016;20.002;2023-02-18T00:36:21;98445.50;;;10.09;100.00
34921;BME280;21128;50.016;20.002;2023-02-18T00:38:50;98449.89;;;10.08;100.00
34921;BME280;21128;50.016;20.002;2023-02-18T00:41:19;98443.00;;;10.07;100.00
34921;BME280;21128;50.016;20.002;2023-02-18T00:43:47;98443.55;;;10.11;100.00
34921;BME280;21128;50.016;20.002;2023-02-18T00:46:14;98444.05;;;10.14;100.00
34921;BME280;21128;50.016;20.002;2023-02-18T00:48:41;98463.66;;;10.20;100.00
34921;BME280;21128;50.016;20.002;2023-02-18T00:51:09;98444.72;;;10.26;100.00
34921;BME280;21128;50.016;20.002;2023-02-18T00:53:37;98442.60;;;10.30;100.00
34921;BME280;21128;50.016;20.002;2023-02-18T00:56:05;98425.55;;;10.34;100.00
34921;BME280;21128;50.016;20.002;2023-02-18T00:58:33;98431.50;;;10.36;100.00
34921;BME280;21128;50.016;20.002;2023-02-18T01:01:01;98423.16;;;10.40;100.00
34921;BME280;21128;50.016;20.002;2023-02-18T01:03:28;98436.83;;;10.44;100.00
34921;BME280;21128;50.016;20.002;2023-02-18T01:05:55;98459.34;;;10.47;100.00
34921;BME280;21128;50.016;20.002;2023-02-18T01:08:22;98452.95;;;10.49;100.00
34921;BME280;21128;50.016;20.002;2023-02-18T01:10:53;98459.72;;;10.52;100.00
34921;BME280;21128;50.016;20.002;2023-02-18T01:13:21;98456.78;;;10.55;100.00
34921;BME280;21128;50.016;20.002;2023-02-18T01:15:48;98477.33;;;10.59;100.00
34921;BME280;21128;50.016;20.002;2023-02-18T01:18:15;98495.44;;;10.62;100.00
34921;BME280;21128;50.016;20.002;2023-02-18T01:20:43;98495.72;;;10.59;100.00
34921;BME280;21128;50.016;20.002;2023-02-18T01:23:11;98521.80;;;10.53;100.00
34921;BME280;21128;50.016;20.002;2023-02-18T01:25:39;98529.59;;;10.45;100.00
34921;BME280;21128;50.016;20.002;2023-02-18T01:28:07;98481.84;;;10.31;100.00
34921;BME280;21128;50.016;20.002;2023-02-18T01:30:34;98518.79;;;10.20;100.00
34921;BME280;21128;50.016;20.002;2023-02-18T01:33:01;98531.16;;;10.10;100.00
34921;BME280;21128;50.016;20.002;2023-02-18T01:35:28;98511.03;;;10.01;100.00
34921;BME280;21128;50.016;20.002;2023-02-18T01:37:55;98495.19;;;9.93;100.00
34921;BME280;21128;50.016;20.002;2023-02-18T01:40:25;98530.03;;;9.85;100.00
34921;BME280;21128;50.016;20.002;2023-02-18T01:42:53;98538.47;;;9.79;100.00
34921;BME280;21128;50.016;20.002;2023-02-18T01:48:14;98549.27;;;9.66;100.00
34921;BME280;21128;50.016;20.002;2023-02-18T01:50:46;98541.55;;;9.65;100.00
34921;BME280;21128;50.016;20.002;2023-02-18T01:53:17;98547.09;;;9.62;100.00
34921;BME280;21128;50.016;20.002;2023-02-18T01:55:47;98549.16;;;9.58;100.00
34921;BME280;21128;50.016;20.002;2023-02-18T01:58:15;98554.03;;;9.53;100.00
34921;BME280;21128;50.016;20.002;2023-02-18T02:00:42;98545.75;;;9.48;100.00
34921;BME280;21128;50.016;20.002;2023-02-18T02:03:09;98568.14;;;9.42;100.00
34921;BME280;21128;50.016;20.002;2023-02-18T02:05:36;98532.81;;;9.37;99.97
34921;BME280;21128;50.016;20.002;2023-02-18T02:08:03;98549.78;;;9.33;99.10
34921;BME280;21128;50.016;20.002;2023-02-18T02:13:48;98547.16;;;9.33;96.15
34921;BME280;21128;50.016;20.002;2023-02-18T02:35:15;98562.63;;;9.36;90.55
34921;BME280;21128;50.016;20.002;2023-02-18T02:43:50;98571.48;;;9.25;92.42
34921;BME280;21128;50.016;20.002;2023-02-18T02:46:35;98578.92;;;9.20;91.16
34921;BME280;21128;50.016;20.002;2023-02-18T02:52:22;98572.58;;;9.13;88.21
34921;BME280;21128;50.016;20.002;2023-02-18T02:54:50;98587.48;;;9.12;86.74
34921;BME280;21128;50.016;20.002;2023-02-18T02:59:48;98578.66;;;9.13;86.72
34921;BME280;21128;50.016;20.002;2023-02-18T03:06:14;98586.95;;;9.09;86.38
34921;BME280;21128;50.016;20.002;2023-02-18T03:08:56;98605.41;;;9.07;86.67
34921;BME280;21128;50.016;20.002;2023-02-18T03:11:31;98618.52;;;9.07;85.37
34921;BME280;21128;50.016;20.002;2023-02-18T03:14:31;98572.16;;;9.08;85.79
34921;BME280;21128;50.016;20.002;2023-02-18T03:17:11;98627.09;;;9.09;86.20
34921;BME280;21128;50.016;20.002;2023-02-18T03:19:48;98622.81;;;9.08;85.44
34921;BME280;21128;50.016;20.002;2023-02-18T03:22:26;98627.34;;;9.06;86.25
34921;BME280;21128;50.016;20.002;2023-02-18T03:24:56;98645.69;;;9.06;87.76
34921;BME280;21128;50.016;20.002;2023-02-18T03:27:27;98629.57;;;9.01;88.78
34921;BME280;21128;50.016;20.002;2023-02-18T03:32:34;98633.02;;;8.92;89.91
34921;BME280;21128;50.016;20.002;2023-02-18T03:35:07;98640.44;;;8.87;90.84
34921;BME280;21128;50.016;20.002;2023-02-18T03:37:37;98637.39;;;8.82;91.46
34921;BME280;21128;50.016;20.002;2023-02-18T03:40:09;98630.78;;;8.78;92.21
34921;BME280;21128;50.016;20.002;2023-02-18T03:42:36;98640.68;;;8.74;92.61
34921;BME280;21128;50.016;20.002;2023-02-18T03:45:03;98638.48;;;8.69;93.11
34921;BME280;21128;50.016;20.002;2023-02-18T03:47:31;98643.14;;;8.66;92.97
34921;BME280;21128;50.016;20.002;2023-02-18T03:49:58;98648.80;;;8.61;93.44
34921;BME280;21128;50.016;20.002;2023-02-18T03:52:25;98668.25;;;8.59;93.86
34921;BME280;21128;50.016;20.002;2023-02-18T03:54:52;98662.42;;;8.55;91.52
34921;BME280;21128;50.016;20.002;2023-02-18T03:57:19;98666.02;;;8.54;91.45
34921;BME280;21128;50.016;20.002;2023-02-18T03:59:46;98662.70;;;8.52;90.97
34921;BME280;21128;50.016;20.002;2023-02-18T04:02:13;98681.28;;;8.49;89.92
34921;BME280;21128;50.016;20.002;2023-02-18T04:04:40;98656.89;;;8.49;89.92
34921;BME280;21128;50.016;20.002;2023-02-18T04:07:07;98662.95;;;8.49;91.03
34921;BME280;21128;50.016;20.002;2023-02-18T04:09:34;98675.36;;;8.47;91.52
34921;BME280;21128;50.016;20.002;2023-02-18T04:12:01;98671.22;;;8.44;92.44
34921;BME280;21128;50.016;20.002;2023-02-18T04:14:28;98656.72;;;8.40;93.47
34921;BME280;21128;50.016;20.002;2023-02-18T04:16:55;98664.16;;;8.35;94.89
34921;BME280;21128;50.016;20.002;2023-02-18T04:19:22;98667.85;;;8.33;96.17
34921;BME280;21128;50.016;20.002;2023-02-18T04:21:49;98652.66;;;8.27;96.29
34921;BME280;21128;50.016;20.002;2023-02-18T04:24:16;98659.94;;;8.23;96.94
34921;BME280;21128;50.016;20.002;2023-02-18T04:26:43;98665.30;;;8.22;96.95
34921;BME280;21128;50.016;20.002;2023-02-18T04:29:09;98657.73;;;8.18;98.52
34921;BME280;21128;50.016;20.002;2023-02-18T04:31:36;98667.51;;;8.16;98.47
34921;BME280;21128;50.016;20.002;2023-02-18T04:34:04;98668.02;;;8.10;98.89
34921;BME280;21128;50.016;20.002;2023-02-18T04:36:31;98663.75;;;8.09;97.65
34921;BME280;21128;50.016;20.002;2023-02-18T04:38:58;98658.38;;;8.11;97.08
34921;BME280;21128;50.016;20.002;2023-02-18T04:41:26;98654.80;;;8.12;96.51
34921;BME280;21128;50.016;20.002;2023-02-18T04:43:53;98665.13;;;8.13;94.48
34921;BME280;21128;50.016;20.002;2023-02-18T04:46:20;98668.58;;;8.14;94.13
34921;BME280;21128;50.016;20.002;2023-02-18T04:48:47;98653.70;;;8.14;91.72
34921;BME280;21128;50.016;20.002;2023-02-18T04:51:14;98665.72;;;8.17;90.68
34921;BME280;21128;50.016;20.002;2023-02-18T04:53:41;98692.72;;;8.17;85.48
34921;BME280;21128;50.016;20.002;2023-02-18T04:56:08;98653.88;;;8.23;84.54
34921;BME280;21128;50.016;20.002;2023-02-18T04:58:35;98670.30;;;8.25;81.38
34921;BME280;21128;50.016;20.002;2023-02-18T05:01:03;98670.84;;;8.28;78.12
34921;BME280;21128;50.016;20.002;2023-02-18T05:03:30;98670.58;;;8.31;73.49
34921;BME280;21128;50.016;20.002;2023-02-18T05:05:58;98677.11;;;8.37;75.90
34921;BME280;21128;50.016;20.002;2023-02-18T05:08:25;98668.30;;;8.38;73.32
34921;BME280;21128;50.016;20.002;2023-02-18T05:10:52;98691.86;;;8.38;74.71
34921;BME280;21128;50.016;20.002;2023-02-18T05:13:19;98680.70;;;8.36;74.25
34921;BME280;21128;50.016;20.002;2023-02-18T05:15:48;98665.95;;;8.35;74.85
34921;BME280;21128;50.016;20.002;2023-02-18T05:18:15;98696.75;;;8.31;75.09
34921;BME280;21128;50.016;20.002;2023-02-18T05:20:42;98684.22;;;8.25;71.99
34921;BME280;21128;50.016;20.002;2023-02-18T05:23:09;98687.90;;;8.23;72.26
34921;BME280;21128;50.016;20.002;2023-02-18T05:25:36;98695.33;;;8.17;70.78
34921;BME280;21128;50.016;20.002;2023-02-18T05:28:03;98683.31;;;8.15;71.20
34921;BME280;21128;50.016;20.002;2023-02-18T05:30:30;98681.94;;;8.11;70.06
34921;BME280;21128;50.016;20.002;2023-02-18T05:32:57;98687.54;;;8.06;68.35
34921;BME280;21128;50.016;20.002;2023-02-18T05:35:24;98705.03;;;8.06;67.36
34921;BME280;21128;50.016;20.002;2023-02-18T05:37:51;98691.39;;;8.02;69.09
34921;BME280;21128;50.016;20.002;2023-02-18T05:40:18;98691.66;;;7.99;68.51
34921;BME280;21128;50.016;20.002;2023-02-18T05:42:45;98705.94;;;7.95;69.80
34921;BME280;21128;50.016;20.002;2023-02-18T05:45:12;98701.94;;;7.91;69.79
34921;BME280;21128;50.016;20.002;2023-02-18T05:47:39;98699.70;;;7.86;70.11
34921;BME280;21128;50.016;20.002;2023-02-18T05:50:07;98695.80;;;7.81;70.87
34921;BME280;21128;50.016;20.002;2023-02-18T05:52:34;98704.05;;;7.76;72.01
34921;BME280;21128;50.016;20.002;2023-02-18T05:55:01;98727.95;;;7.72;69.64
34921;BME280;21128;50.016;20.002;2023-02-18T05:57:28;98711.06;;;7.76;70.35
34921;BME280;21128;50.016;20.002;2023-02-18T05:59:55;98724.38;;;7.73;64.16
34921;BME280;21128;50.016;20.002;2023-02-18T06:02:22;98719.34;;;7.81;64.19
34921;BME280;21128;50.016;20.002;2023-02-18T06:04:49;98733.84;;;7.85;62.81
34921;BME280;21128;50.016;20.002;2023-02-18T06:07:16;98725.98;;;7.85;62.78
34921;BME280;21128;50.016;20.002;2023-02-18T06:09:44;98741.69;;;7.85;61.64
34921;BME280;21128;50.016;20.002;2023-02-18T06:12:11;98726.13;;;7.83;63.06
34921;BME280;21128;50.016;20.002;2023-02-18T06:14:38;98725.30;;;7.83;63.60
34921;BME280;21128;50.016;20.002;2023-02-18T06:17:09;98734.80;;;7.84;62.44
34921;BME280;21128;50.016;20.002;2023-02-18T06:19:37;98732.31;;;7.82;63.60
34921;BME280;21128;50.016;20.002;2023-02-18T06:22:06;98730.76;;;7.80;63.89
34921;BME280;21128;50.016;20.002;2023-02-18T06:24:33;98728.41;;;7.77;62.95
34921;BME280;21128;50.016;20.002;2023-02-18T06:27:00;98719.60;;;7.78;64.95
34921;BME280;21128;50.016;20.002;2023-02-18T06:29:28;98697.58;;;7.80;61.22
34921;BME280;21128;50.016;20.002;2023-02-18T06:31:57;98723.94;;;7.88;61.82
34921;BME280;21128;50.016;20.002;2023-02-18T06:34:26;98708.00;;;7.92;61.79
34921;BME280;21128;50.016;20.002;2023-02-18T06:36:53;98726.73;;;7.97;60.81
34921;BME280;21128;50.016;20.002;2023-02-18T06:39:20;98738.63;;;8.01;60.08
34921;BME280;21128;50.016;20.002;2023-02-18T06:41:47;98732.30;;;8.03;60.86
34921;BME280;21128;50.016;20.002;2023-02-18T06:44:14;98745.38;;;8.03;59.86
34921;BME280;21128;50.016;20.002;2023-02-18T06:46:43;98720.87;;;8.04;59.39
34921;BME280;21128;50.016;20.002;2023-02-18T06:49:10;98744.28;;;8.06;61.18
34921;BME280;21128;50.016;20.002;2023-02-18T06:51:37;98733.72;;;8.07;61.83
34921;BME280;21128;50.016;20.002;2023-02-18T06:54:04;98760.58;;;8.09;59.28
34921;BME280;21128;50.016;20.002;2023-02-18T06:56:32;98760.31;;;8.12;60.21
34921;BME280;21128;50.016;20.002;2023-02-18T06:58:59;98746.95;;;8.15;59.55
34921;BME280;21128;50.016;20.002;2023-02-18T07:01:26;98748.38;;;8.19;60.46
34921;BME280;21128;50.016;20.002;2023-02-18T07:03:53;98739.69;;;8.19;58.97
34921;BME280;21128;50.016;20.002;2023-02-18T07:06:20;98749.06;;;8.22;59.42
34921;BME280;21128;50.016;20.002;2023-02-18T07:08:47;98756.78;;;8.23;58.87
34921;BME280;21128;50.016;20.002;2023-02-18T07:11:14;98755.72;;;8.26;58.27
34921;BME280;21128;50.016;20.002;2023-02-18T07:13:41;98757.23;;;8.28;58.52
34921;BME280;21128;50.016;20.002;2023-02-18T07:16:08;98742.91;;;8.32;57.93
34921;BME280;21128;50.016;20.002;2023-02-18T07:18:35;98735.55;;;8.37;56.21
34921;BME280;21128;50.016;20.002;2023-02-18T07:21:02;98756.11;;;8.42;56.75
34921;BME280;21128;50.016;20.002;2023-02-18T07:23:29;98759.15;;;8.47;55.40
34921;BME280;21128;50.016;20.002;2023-02-18T07:26:07;98777.23;;;8.50;54.82
34921;BME280;21128;50.016;20.002;2023-02-18T07:28:35;98769.11;;;8.53;56.40
34921;BME280;21128;50.016;20.002;2023-02-18T07:31:02;98775.17;;;8.54;55.62
34921;BME280;21128;50.016;20.002;2023-02-18T07:33:29;98748.98;;;8.54;56.45
34921;BME280;21128;50.016;20.002;2023-02-18T07:35:58;98766.36;;;8.55;55.37
34921;BME280;21128;50.016;20.002;2023-02-18T07:38:27;98742.65;;;8.56;55.13
34921;BME280;21128;50.016;20.002;2023-02-18T07:40:55;98741.82;;;8.56;55.52
34921;BME280;21128;50.016;20.002;2023-02-18T07:43:23;98747.78;;;8.58;56.62
34921;BME280;21128;50.016;20.002;2023-02-18T07:45:50;98733.83;;;8.57;56.19
34921;BME280;21128;50.016;20.002;2023-02-18T07:48:17;98751.09;;;8.60;56.45
34921;BME280;21128;50.016;20.002;2023-02-18T07:50:45;98749.30;;;8.60;57.00
34921;BME280;21128;50.016;20.002;2023-02-18T07:53:14;98764.73;;;8.63;56.28
34921;BME280;21128;50.016;20.002;2023-02-18T07:55:41;98744.75;;;8.62;57.80
34921;BME280;21128;50.016;20.002;2023-02-18T07:58:23;98718.55;;;8.62;55.88
34921;BME280;21128;50.016;20.002;2023-02-18T08:00:50;98707.39;;;8.60;54.80
34921;BME280;21128;50.016;20.002;2023-02-18T08:03:25;98739.52;;;8.62;56.82
34921;BME280;21128;50.016;20.002;2023-02-18T08:05:54;98735.23;;;8.61;56.05
34921;BME280;21128;50.016;20.002;2023-02-18T08:08:23;98724.77;;;8.61;54.85
34921;BME280;21128;50.016;20.002;2023-02-18T08:10:52;98724.48;;;8.64;55.05
34921;BME280;21128;50.016;20.002;2023-02-18T08:13:19;98733.06;;;8.66;54.80
34921;BME280;21128;50.016;20.002;2023-02-18T08:15:47;98741.86;;;8.65;53.45
34921;BME280;21128;50.016;20.002;2023-02-18T08:18:16;98734.96;;;8.64;54.74
34921;BME280;21128;50.016;20.002;2023-02-18T08:20:44;98747.23;;;8.64;53.09
34921;BME280;21128;50.016;20.002;2023-02-18T08:23:14;98752.61;;;8.62;53.34
34921;BME280;21128;50.016;20.002;2023-02-18T08:25:59;98743.78;;;8.63;54.27
34921;BME280;21128;50.016;20.002;2023-02-18T08:28:26;98731.52;;;8.64;53.83
34921;BME280;21128;50.016;20.002;2023-02-18T08:30:53;98742.13;;;8.62;53.24
34921;BME280;21128;50.016;20.002;2023-02-18T08:33:21;98756.19;;;8.61;53.30
34921;BME280;21128;50.016;20.002;2023-02-18T08:35:50;98749.98;;;8.62;53.01
34921;BME280;21128;50.016;20.002;2023-02-18T08:38:18;98749.98;;;8.62;52.85
34921;BME280;21128;50.016;20.002;2023-02-18T08:40:46;98755.23;;;8.62;52.43
34921;BME280;21128;50.016;20.002;2023-02-18T08:43:14;98761.88;;;8.66;52.89
34921;BME280;21128;50.016;20.002;2023-02-18T08:45:43;98752.78;;;8.70;52.65
34921;BME280;21128;50.016;20.002;2023-02-18T08:48:12;98754.05;;;8.76;52.97
34921;BME280;21128;50.016;20.002;2023-02-18T08:50:39;98744.26;;;8.78;52.78
34921;BME280;21128;50.016;20.002;2023-02-18T08:53:06;98769.49;;;8.79;52.60
34921;BME280;21128;50.016;20.002;2023-02-18T08:55:35;98742.47;;;8.79;51.55
34921;BME280;21128;50.016;20.002;2023-02-18T08:58:05;98767.84;;;8.78;51.13
34921;BME280;21128;50.016;20.002;2023-02-18T09:00:33;98736.95;;;8.82;51.43
34921;BME280;21128;50.016;20.002;2023-02-18T09:03:00;98753.11;;;8.87;51.12
34921;BME280;21128;50.016;20.002;2023-02-18T09:05:28;98745.80;;;8.90;51.73
34921;BME280;21128;50.016;20.002;2023-02-18T09:07:55;98750.21;;;8.90;50.64
34921;BME280;21128;50.016;20.002;2023-02-18T09:10:23;98758.22;;;8.88;51.19
34921;BME280;21128;50.016;20.002;2023-02-18T09:12:50;98770.48;;;8.88;50.95
34921;BME280;21128;50.016;20.002;2023-02-18T09:15:17;98759.18;;;8.87;50.04
34921;BME280;21128;50.016;20.002;2023-02-18T09:17:44;98763.59;;;8.87;50.55
34921;BME280;21128;50.016;20.002;2023-02-18T09:20:11;98757.38;;;8.88;51.28
34921;BME280;21128;50.016;20.002;2023-02-18T09:22:39;98786.34;;;8.86;50.79
34921;BME280;21128;50.016;20.002;2023-02-18T09:25:06;98783.86;;;8.85;49.96
34921;BME280;21128;50.016;20.002;2023-02-18T09:27:33;98772.66;;;8.83;50.83
34921;BME280;21128;50.016;20.002;2023-02-18T09:30:00;98771.73;;;8.84;52.15
34921;BME280;21128;50.016;20.002;2023-02-18T09:32:27;98766.35;;;8.85;51.34
34921;BME280;21128;50.016;20.002;2023-02-18T09:34:54;98770.77;;;8.85;51.06
34921;BME280;21128;50.016;20.002;2023-02-18T09:37:21;98773.39;;;8.85;52.07
34921;BME280;21128;50.016;20.002;2023-02-18T09:39:48;98756.56;;;8.87;52.23
34921;BME280;21128;50.016;20.002;2023-02-18T09:42:17;98778.93;;;8.91;52.30
34921;BME280;21128;50.016;20.002;2023-02-18T09:44:51;98758.80;;;8.92;52.97
34921;BME280;21128;50.016;20.002;2023-02-18T09:47:38;98757.69;;;8.94;52.70
34921;BME280;21128;50.016;20.002;2023-02-18T09:50:13;98748.17;;;8.93;53.26
34921;BME280;21128;50.016;20.002;2023-02-18T09:52:43;98744.72;;;8.93;52.02
34921;BME280;21128;50.016;20.002;2023-02-18T09:55:22;98758.52;;;8.95;53.40
34921;BME280;21128;50.016;20.002;2023-02-18T09:57:55;98761.97;;;8.95;53.63
34921;BME280;21128;50.016;20.002;2023-02-18T10:00:37;98750.66;;;8.95;53.83
34921;BME280;21128;50.016;20.002;2023-02-18T10:03:11;98752.59;;;8.93;53.94
34921;BME280;21128;50.016;20.002;2023-02-18T10:05:48;98701.14;;;8.92;54.56
34921;BME280;21128;50.016;20.002;2023-02-18T10:08:44;98737.00;;;8.91;54.34
34921;BME280;21128;50.016;20.002;2023-02-18T10:11:15;98745.55;;;8.93;54.33
34921;BME280;21128;50.016;20.002;2023-02-18T10:13:43;98741.00;;;8.95;55.35
34921;BME280;21128;50.016;20.002;2023-02-18T10:16:15;98746.38;;;8.94;54.45
34921;BME280;21128;50.016;20.002;2023-02-18T10:18:45;98689.55;;;8.94;55.19
34921;BME280;21128;50.016;20.002;2023-02-18T10:21:18;98725.14;;;8.97;54.35
34921;BME280;21128;50.016;20.002;2023-02-18T10:23:59;98707.77;;;9.06;54.61
34921;BME280;21128;50.016;20.002;2023-02-18T10:26:29;98704.75;;;9.10;53.54
34921;BME280;21128;50.016;20.002;2023-02-18T10:28:57;98710.54;;;9.14;53.15
34921;BME280;21128;50.016;20.002;2023-02-18T10:31:29;98698.84;;;9.18;53.95
34921;BME280;21128;50.016;20.002;2023-02-18T10:47:33;98691.22;;;9.05;53.03
34921;BME280;21128;50.016;20.002;2023-02-18T10:52:46;98715.34;;;8.99;53.89
34921;BME280;21128;50.016;20.002;2023-02-18T10:55:16;98701.97;;;8.92;55.21
34921;BME280;21128;50.016;20.002;2023-02-18T10:57:53;98696.02;;;8.90;54.77
34921;BME280;21128;50.016;20.002;2023-02-18T11:00:21;98700.56;;;8.88;55.59
34921;BME280;21128;50.016;20.002;2023-02-18T11:03:13;98698.91;;;8.87;56.15
34921;BME280;21128;50.016;20.002;2023-02-18T11:05:43;98669.13;;;8.88;56.62
34921;BME280;21128;50.016;20.002;2023-02-18T11:08:17;98676.16;;;8.88;57.42
34921;BME280;21128;50.016;20.002;2023-02-18T11:10:47;98676.16;;;8.88;57.34
34921;BME280;21128;50.016;20.002;2023-02-18T11:13:17;98667.75;;;8.84;58.18
34921;BME280;21128;50.016;20.002;2023-02-18T11:20:58;98652.42;;;8.80;59.21
34921;BME280;21128;50.016;20.002;2023-02-18T11:23:25;98656.01;;;8.79;60.23
34921;BME280;21128;50.016;20.002;2023-02-18T11:30:52;98671.43;;;8.72;60.72
34921;BME280;21128;50.016;20.002;2023-02-18T11:33:25;98648.43;;;8.76;61.59
34921;BME280;21128;50.016;20.002;2023-02-18T11:35:57;98639.61;;;8.77;61.51
34921;BME280;21128;50.016;20.002;2023-02-18T11:38:40;98647.85;;;8.72;62.25
34921;BME280;21128;50.016;20.002;2023-02-18T11:41:18;98645.08;;;8.64;62.36
34921;BME280;21128;50.016;20.002;2023-02-18T11:43:49;98665.48;;;8.60;62.65
34921;BME280;21128;50.016;20.002;2023-02-18T11:46:20;98655.25;;;8.57;63.11
34921;BME280;21128;50.016;20.002;2023-02-18T11:48:49;98663.53;;;8.53;64.20
34921;BME280;21128;50.016;20.002;2023-02-18T11:51:25;98653.03;;;8.43;65.31
34921;BME280;21128;50.016;20.002;2023-02-18T11:53:58;98639.77;;;8.35;66.21
34921;BME280;21128;50.016;20.002;2023-02-18T11:56:36;98630.45;;;8.21;67.37
34921;BME280;21128;50.016;20.002;2023-02-18T11:59:04;98624.63;;;8.08;68.05
34921;BME280;21128;50.016;20.002;2023-02-18T12:02:02;98635.48;;;8.03;68.82
34921;BME280;21128;50.016;20.002;2023-02-18T12:07:49;98629.02;;;7.77;72.55
34921;BME280;21128;50.016;20.002;2023-02-18T12:10:44;98642.41;;;7.62;73.49
34921;BME280;21128;50.016;20.002;2023-02-18T12:13:27;98636.99;;;7.54;73.32
34921;BME280;21128;50.016;20.002;2023-02-18T12:18:27;98623.03;;;7.44;76.64
34921;BME280;21128;50.016;20.002;2023-02-18T12:21:20;98621.64;;;7.40;77.60
34921;BME280;21128;50.016;20.002;2023-02-18T12:23:59;98628.20;;;7.34;78.13
34921;BME280;21128;50.016;20.002;2023-02-18T12:43:06;98598.66;;;7.23;80.63
34921;BME280;21128;50.016;20.002;2023-02-18T12:46:07;98597.33;;;7.28;82.21
34921;BME280;21128;50.016;20.002;2023-02-18T12:53:59;98561.95;;;7.45;81.59
34921;BME280;21128;50.016;20.002;2023-02-18T12:59:22;98559.78;;;7.50;81.36
34921;BME280;21128;50.016;20.002;2023-02-18T13:14:18;98514.06;;;7.45;83.54
34921;BME280;21128;50.016;20.002;2023-02-18T13:16:50;98516.54;;;7.46;84.70
34921;BME280;21128;50.016;20.002;2023-02-18T13:19:20;98509.11;;;7.42;83.96
34921;BME280;21128;50.016;20.002;2023-02-18T13:21:51;98508.80;;;7.35;85.51
34921;BME280;21128;50.016;20.002;2023-02-18T13:26:57;98506.37;;;7.22;86.24
34921;BME280;21128;50.016;20.002;2023-02-18T13:33:25;98500.40;;;7.11;85.07
34921;BME280;21128;50.016;20.002;2023-02-18T13:35:32;98484.27;;;7.05;85.44
34921;BME280;21128;50.016;20.002;2023-02-18T13:40:47;98469.13;;;6.99;86.89
34921;BME280;21128;50.016;20.002;2023-02-18T13:43:29;98457.03;;;6.98;87.95
34921;BME280;21128;50.016;20.002;2023-02-18T13:48:45;98466.00;;;6.85;89.68
34921;BME280;21128;50.016;20.002;2023-02-18T13:51:30;98452.48;;;6.80;90.77
34921;BME280;21128;50.016;20.002;2023-02-18T13:54:03;98448.73;;;6.72;90.14
34921;BME280;21128;50.016;20.002;2023-02-18T13:56:34;98449.81;;;6.70;90.14
34921;BME280;21128;50.016;20.002;2023-02-18T13:59:08;98428.50;;;6.65;91.44
34921;BME280;21128;50.016;20.002;2023-02-18T14:25:51;98353.03;;;6.20;95.99
34921;BME280;21128;50.016;20.002;2023-02-18T14:31:05;98341.77;;;6.19;95.29
34921;BME280;21128;50.016;20.002;2023-02-18T14:34:01;98339.03;;;6.21;95.37
34921;BME280;21128;50.016;20.002;2023-02-18T14:45:16;98315.51;;;6.32;95.66
34921;BME280;21128;50.016;20.002;2023-02-18T14:50:17;98297.05;;;6.24;96.48
34921;BME280;21128;50.016;20.002;2023-02-18T14:53:02;98296.23;;;6.24;96.27
34921;BME280;21128;50.016;20.002;2023-02-18T14:55:33;98293.48;;;6.25;96.67
34921;BME280;21128;50.016;20.002;2023-02-18T14:58:10;98288.27;;;6.25;96.83
34921;BME280;21128;50.016;20.002;2023-02-18T15:00:41;98274.53;;;6.23;97.19
34921;BME280;21128;50.016;20.002;2023-02-18T15:03:14;98277.25;;;6.21;97.36
34921;BME280;21128;50.016;20.002;2023-02-18T15:05:43;98265.02;;;6.22;97.68
34921;BME280;21128;50.016;20.002;2023-02-18T15:08:20;98258.88;;;6.23;98.38
34921;BME280;21128;50.016;20.002;2023-02-18T15:11:03;98249.82;;;6.27;98.70
34921;BME280;21128;50.016;20.002;2023-02-18T15:13:40;98250.92;;;6.25;98.81
34921;BME280;21128;50.016;20.002;2023-02-18T15:16:31;98246.66;;;6.24;99.06
34921;BME280;21128;50.016;20.002;2023-02-18T15:19:01;98239.89;;;6.21;99.87
34921;BME280;21128;50.016;20.002;2023-02-18T15:21:52;98253.08;;;6.19;99.95
34921;BME280;21128;50.016;20.002;2023-02-18T15:24:30;98236.28;;;6.12;100.00
34921;BME280;21128;50.016;20.002;2023-02-18T15:27:02;98224.14;;;6.02;100.00
34921;BME280;21128;50.016;20.002;2023-02-18T15:29:36;98206.53;;;5.94;100.00
34921;BME280;21128;50.016;20.002;2023-02-18T15:32:30;98210.23;;;5.91;100.00
34921;BME280;21128;50.016;20.002;2023-02-18T15:35:00;98190.33;;;5.90;100.00
34921;BME280;21128;50.016;20.002;2023-02-18T15:37:29;98184.16;;;5.91;100.00
34921;BME280;21128;50.016;20.002;2023-02-18T15:39:56;98176.53;;;5.88;100.00
34921;BME280;21128;50.016;20.002;2023-02-18T15:42:41;98168.84;;;5.87;100.00
34921;BME280;21128;50.016;20.002;2023-02-18T15:45:38;98174.89;;;5.87;100.00
34921;BME280;21128;50.016;20.002;2023-02-18T15:48:04;98163.21;;;5.82;100.00
34921;BME280;21128;50.016;20.002;2023-02-18T15:50:37;98151.23;;;5.79;100.00
34921;BME280;21128;50.016;20.002;2023-02-18T15:53:14;98135.73;;;5.78;100.00
34921;BME280;21128;50.016;20.002;2023-02-18T15:55:46;98126.27;;;5.77;100.00
34921;BME280;21128;50.016;20.002;2023-02-18T15:58:28;98131.47;;;5.77;100.00